createdAt,value
2022-10-15T00:00:20.834Z,19.40
2022-10-15T00:03:16.459Z,17.60
2022-10-15T00:05:51.736Z,18.60
2022-10-15T00:08:28.652Z,18.60
2022-10-15T00:11:05.756Z,18.10
2022-10-15T00:13:35.118Z,18.60
2022-10-15T00:16:04.914Z,21.50
2022-10-15T00:18:37.886Z,19.00
2022-10-15T00:21:15.978Z,18.60
2022-10-15T00:23:45.805Z,18.40
2022-10-15T00:26:26.160Z,18.10
2022-10-15T00:28:58.643Z,20.90
2022-10-15T00:31:30.068Z,19.90
2022-10-15T00:34:03.546Z,20.60
2022-10-15T00:36:35.600Z,19.50
2022-10-15T00:39:11.288Z,19.90
2022-10-15T00:41:46.608Z,17.80
2022-10-15T00:44:22.858Z,20.40
2022-10-15T00:47:28.323Z,20.00
2022-10-15T00:50:10.981Z,20.50
2022-10-15T00:53:00.510Z,21.10
2022-10-15T00:55:39.125Z,18.50
2022-10-15T01:00:47.938Z,20.90
2022-10-15T01:03:16.837Z,21.90
2022-10-15T01:05:51.395Z,18.90
2022-10-15T01:08:20.124Z,20.40
2022-10-15T01:11:16.174Z,19.60
2022-10-15T01:14:23.941Z,17.20
2022-10-15T01:17:13.935Z,18.40
2022-10-15T01:20:25.783Z,15.10
2022-10-15T01:24:09.382Z,20.90
2022-10-15T01:27:15.062Z,25.90
2022-10-15T01:30:20.154Z,24.30
2022-10-15T01:33:10.343Z,16.70
2022-10-15T01:35:52.049Z,15.60
2022-10-15T01:38:41.437Z,17.10
2022-10-15T01:41:19.953Z,18.90
2022-10-15T01:44:09.453Z,17.20
2022-10-15T01:47:02.151Z,16.30
2022-10-15T01:49:44.680Z,14.40
2022-10-15T01:52:26.698Z,17.70
2022-10-15T01:55:01.578Z,13.50
2022-10-15T01:57:33.200Z,14.20
2022-10-15T02:00:04.766Z,16.60
2022-10-15T02:02:40.252Z,18.50
2022-10-15T02:05:31.172Z,14.30
2022-10-15T02:08:25.672Z,14.60
2022-10-15T02:11:11.922Z,17.90
2022-10-15T02:14:05.151Z,18.30
2022-10-15T02:17:12.139Z,15.80
2022-10-15T02:20:10.345Z,17.90
2022-10-15T02:23:18.083Z,11.80
2022-10-15T02:26:04.168Z,14.10
2022-10-15T02:29:05.613Z,12.70
2022-10-15T02:31:55.720Z,15.00
2022-10-15T02:34:41.964Z,15.70
2022-10-15T02:37:54.849Z,12.90
2022-10-15T02:41:12.714Z,13.00
2022-10-15T02:48:42.249Z,17.00
2022-10-15T02:51:11.023Z,12.70
2022-10-15T02:53:42.590Z,15.20
2022-10-15T02:56:11.205Z,12.20
2022-10-15T02:58:40.093Z,14.90
2022-10-15T03:01:09.523Z,15.10
2022-10-15T03:03:44.976Z,11.40
2022-10-15T03:06:16.116Z,17.10
2022-10-15T03:08:49.861Z,14.70
2022-10-15T03:11:18.961Z,17.10
2022-10-15T03:13:48.162Z,18.80
2022-10-15T03:16:17.440Z,14.30
2022-10-15T03:18:54.871Z,14.20
2022-10-15T03:21:24.154Z,16.70
2022-10-15T03:23:53.358Z,15.60
2022-10-15T03:26:22.941Z,15.60
2022-10-15T03:28:52.595Z,14.20
2022-10-15T03:31:24.422Z,14.60
2022-10-15T03:34:13.434Z,13.50
2022-10-15T03:36:43.369Z,11.20
2022-10-15T03:42:16.780Z,13.50
2022-10-15T03:44:46.166Z,14.30
2022-10-15T03:47:15.550Z,12.60
2022-10-15T03:49:45.439Z,15.70
2022-10-15T03:52:15.030Z,13.00
2022-10-15T03:54:44.447Z,15.10
2022-10-15T03:57:13.665Z,14.00
2022-10-15T04:02:11.823Z,16.70
2022-10-15T04:04:41.893Z,15.20
2022-10-15T04:07:11.822Z,13.90
2022-10-15T04:09:41.033Z,13.20
2022-10-15T04:12:10.310Z,12.40
2022-10-15T04:14:41.069Z,13.10
2022-10-15T04:17:10.723Z,13.40
2022-10-15T04:19:43.682Z,14.70
2022-10-15T04:22:43.003Z,14.80
2022-10-15T04:25:18.337Z,14.70
2022-10-15T04:27:48.430Z,15.40
2022-10-15T04:30:37.761Z,16.50
2022-10-15T04:36:48.612Z,16.90
2022-10-15T04:39:27.416Z,15.40
2022-10-15T04:42:04.321Z,12.40
2022-10-15T04:45:12.727Z,16.00
2022-10-15T04:47:51.495Z,12.90
2022-10-15T04:50:20.871Z,14.90
2022-10-15T04:53:42.546Z,17.30
2022-10-15T04:56:31.861Z,19.30
2022-10-15T04:59:46.444Z,15.90
2022-10-15T05:02:17.380Z,14.70
2022-10-15T05:04:48.439Z,12.40
2022-10-15T05:07:19.343Z,14.70
2022-10-15T05:09:49.934Z,14.80
2022-10-15T05:12:22.040Z,13.40
2022-10-15T05:14:54.421Z,14.10
2022-10-15T05:17:27.393Z,15.10
2022-10-15T05:19:58.284Z,13.00
2022-10-15T05:22:33.645Z,13.30
2022-10-15T05:25:06.914Z,13.80
2022-10-15T05:27:36.748Z,13.50
2022-10-15T05:30:09.365Z,13.40
2022-10-15T05:32:40.143Z,13.70
2022-10-15T05:35:09.335Z,11.30
2022-10-15T05:37:37.945Z,12.10
2022-10-15T05:40:07.264Z,12.40
2022-10-15T05:42:36.744Z,12.50
2022-10-15T05:45:07.144Z,13.80
2022-10-15T05:47:35.944Z,16.30
2022-10-15T05:50:09.497Z,15.10
2022-10-15T05:52:40.734Z,15.90
2022-10-15T05:55:10.124Z,16.40
2022-10-15T05:57:39.783Z,17.80
2022-10-15T06:00:10.113Z,18.20
2022-10-15T06:02:39.533Z,18.30
2022-10-15T06:05:08.543Z,19.60
2022-10-15T06:07:37.335Z,19.70
2022-10-15T06:10:06.732Z,19.40
2022-10-15T06:12:35.734Z,21.40
2022-10-15T06:15:05.794Z,21.40
2022-10-15T06:17:35.062Z,21.10
2022-10-15T06:20:04.173Z,18.00
2022-10-15T06:22:32.792Z,20.00
2022-10-15T06:25:01.526Z,22.90
2022-10-15T06:27:31.204Z,21.40
2022-10-15T06:29:59.925Z,19.70
2022-10-15T06:32:28.605Z,21.70
2022-10-15T06:34:57.293Z,19.00
2022-10-15T06:37:26.079Z,21.70
2022-10-15T06:39:55.194Z,15.90
2022-10-15T06:42:23.760Z,18.70
2022-10-15T06:44:52.356Z,20.20
2022-10-15T06:47:21.144Z,16.40
2022-10-15T06:49:49.924Z,18.90
2022-10-15T06:52:18.705Z,23.20
2022-10-15T06:54:47.305Z,20.10
2022-10-15T06:57:16.394Z,18.20
2022-10-15T06:59:44.895Z,18.50
2022-10-15T07:02:18.084Z,18.30
2022-10-15T07:04:47.845Z,17.50
2022-10-15T07:07:16.576Z,19.10
2022-10-15T07:09:47.308Z,18.10
2022-10-15T07:12:16.915Z,22.50
2022-10-15T07:14:45.488Z,20.70
2022-10-15T07:17:14.076Z,19.70
2022-10-15T07:19:44.104Z,19.10
2022-10-15T07:22:12.897Z,19.30
2022-10-15T07:24:41.454Z,19.80
2022-10-15T07:27:18.713Z,19.90
2022-10-15T07:29:47.953Z,21.00
2022-10-15T07:32:16.538Z,21.10
2022-10-15T07:34:45.127Z,15.90
2022-10-15T07:37:13.706Z,21.90
2022-10-15T07:39:42.305Z,20.20
2022-10-15T07:42:10.875Z,20.90
2022-10-15T07:44:39.664Z,21.00
2022-10-15T07:47:08.564Z,19.30
2022-10-15T07:49:37.161Z,18.50
2022-10-15T07:52:05.937Z,16.70
2022-10-15T07:54:35.454Z,16.40
2022-10-15T07:57:04.338Z,17.10
2022-10-15T07:59:33.649Z,18.40
2022-10-15T08:02:02.514Z,16.20
2022-10-15T08:04:31.408Z,17.80
2022-10-15T08:07:00.109Z,15.90
2022-10-15T08:09:29.194Z,16.80
2022-10-15T08:11:57.776Z,17.70
2022-10-15T08:14:26.474Z,18.10
2022-10-15T08:16:55.145Z,15.60
2022-10-15T08:19:23.980Z,16.40
2022-10-15T08:21:52.645Z,17.20
2022-10-15T08:24:21.713Z,16.80
2022-10-15T08:26:50.827Z,16.30
2022-10-15T08:29:20.700Z,16.70
2022-10-15T08:31:50.255Z,16.70
2022-10-15T08:34:19.333Z,15.20
2022-10-15T08:36:47.764Z,14.90
2022-10-15T08:39:16.414Z,16.10
2022-10-15T08:42:03.447Z,17.70
2022-10-15T08:45:01.695Z,13.90
2022-10-15T08:47:45.854Z,15.80
2022-10-15T08:50:36.855Z,15.50
2022-10-15T08:53:05.742Z,16.70
2022-10-15T08:55:43.541Z,14.00
2022-10-15T08:58:26.175Z,16.60
2022-10-15T09:01:28.025Z,17.30
2022-10-15T09:04:14.980Z,15.80
2022-10-15T09:06:44.366Z,15.90
2022-10-15T09:09:44.875Z,15.10
2022-10-15T09:12:51.344Z,15.90
2022-10-15T09:15:26.955Z,16.50
2022-10-15T09:17:57.024Z,15.90
2022-10-15T09:20:36.467Z,15.80
2022-10-15T09:23:20.188Z,14.70
2022-10-15T09:26:10.193Z,15.60
2022-10-15T09:29:04.516Z,16.30
2022-10-15T09:31:54.927Z,17.50
2022-10-15T09:34:37.675Z,14.60
2022-10-15T09:37:20.182Z,15.60
2022-10-15T09:40:12.436Z,15.30
2022-10-15T09:42:44.493Z,15.90
2022-10-15T09:45:16.454Z,16.70
2022-10-15T09:47:45.757Z,14.50
2022-10-15T09:50:15.545Z,15.30
2022-10-15T09:52:56.135Z,13.00
2022-10-15T09:55:49.512Z,13.90
2022-10-15T09:58:25.844Z,14.40
2022-10-15T10:01:07.730Z,14.30
2022-10-15T10:03:38.464Z,12.70
2022-10-15T10:06:14.334Z,12.00
2022-10-15T10:08:51.451Z,11.90
2022-10-15T10:11:22.689Z,12.00
2022-10-15T10:13:59.139Z,10.90
2022-10-15T10:16:30.497Z,11.50
2022-10-15T10:19:16.782Z,11.20
2022-10-15T10:21:47.066Z,11.40
2022-10-15T10:24:32.494Z,10.60
2022-10-15T10:29:41.533Z,13.60
2022-10-15T10:32:22.115Z,11.60
2022-10-15T10:34:52.867Z,9.70
2022-10-15T10:37:22.540Z,9.80
2022-10-15T10:40:01.256Z,10.50
2022-10-15T10:42:35.399Z,10.00
2022-10-15T10:45:35.215Z,11.50
2022-10-15T10:48:22.989Z,11.10
2022-10-15T10:51:11.144Z,10.00
2022-10-15T10:54:05.361Z,10.50
2022-10-15T10:56:45.585Z,10.00
2022-10-15T10:59:41.875Z,10.50
2022-10-15T11:02:13.141Z,10.90
2022-10-15T11:04:42.754Z,10.60
2022-10-15T11:07:35.593Z,9.40
2022-10-15T11:10:23.826Z,9.40
2022-10-15T11:16:24.574Z,8.70
2022-10-15T11:19:19.698Z,9.00
2022-10-15T11:22:24.982Z,7.40
2022-10-15T11:25:06.666Z,9.10
2022-10-15T11:28:06.439Z,6.00
2022-10-15T11:31:09.472Z,8.10
2022-10-15T11:34:19.270Z,8.70
2022-10-15T11:37:06.590Z,8.70
2022-10-15T11:40:00.087Z,8.80
2022-10-15T11:42:59.840Z,7.90
2022-10-15T11:46:00.632Z,7.10
2022-10-15T11:48:56.351Z,6.80
2022-10-15T11:52:04.353Z,7.40
2022-10-15T11:54:45.319Z,6.20
2022-10-15T11:57:19.451Z,8.20
2022-10-15T12:00:04.931Z,7.40
2022-10-15T12:02:39.173Z,7.40
2022-10-15T12:05:34.778Z,9.00
2022-10-15T12:10:58.102Z,9.50
2022-10-15T12:13:39.631Z,12.00
2022-10-15T12:16:42.208Z,13.40
2022-10-15T12:19:21.551Z,7.90
2022-10-15T12:22:00.166Z,11.00
2022-10-15T12:24:52.099Z,11.30
2022-10-15T12:27:20.848Z,12.50
2022-10-15T12:30:13.379Z,13.00
2022-10-15T12:32:48.980Z,14.00
2022-10-15T12:35:24.240Z,13.30
2022-10-15T12:37:53.202Z,12.00
2022-10-15T12:40:21.690Z,13.40
2022-10-15T12:42:55.810Z,12.30
2022-10-15T12:45:39.169Z,11.20
2022-10-15T12:48:09.270Z,13.50
2022-10-15T12:50:37.930Z,10.00
2022-10-15T12:53:26.596Z,14.80
2022-10-15T12:56:11.056Z,14.50
2022-10-15T12:58:47.150Z,15.70
2022-10-15T13:01:15.678Z,15.20
2022-10-15T13:03:50.771Z,12.30
2022-10-15T13:06:22.596Z,15.80
2022-10-15T13:09:28.965Z,13.10
2022-10-15T13:12:01.190Z,13.50
2022-10-15T13:14:38.620Z,9.50
2022-10-15T13:17:18.571Z,10.60
2022-10-15T13:20:27.600Z,13.80
2022-10-15T13:23:36.877Z,11.50
2022-10-15T13:26:21.661Z,14.20
2022-10-15T13:28:55.573Z,11.80
2022-10-15T13:31:37.165Z,11.50
2022-10-15T13:34:24.732Z,15.80
2022-10-15T13:36:57.149Z,13.50
2022-10-15T13:39:42.579Z,14.40
2022-10-15T13:42:24.548Z,13.30
2022-10-15T13:45:19.578Z,14.30
2022-10-15T13:47:55.500Z,12.60
2022-10-15T13:50:35.533Z,14.80
2022-10-15T13:53:10.220Z,18.00
2022-10-15T13:55:48.940Z,16.60
2022-10-15T13:58:31.132Z,15.30
2022-10-15T14:01:21.886Z,14.90
2022-10-15T14:04:46.324Z,16.20
2022-10-15T14:07:28.171Z,12.90
2022-10-15T14:10:39.900Z,13.30
2022-10-15T14:13:22.079Z,12.90
2022-10-15T14:16:46.710Z,15.50
2022-10-15T14:19:44.309Z,15.30
2022-10-15T14:22:21.020Z,16.00
2022-10-15T14:24:57.592Z,13.50
2022-10-15T14:27:29.333Z,16.60
2022-10-15T14:30:46.381Z,16.30
2022-10-15T14:33:40.201Z,13.70
2022-10-15T14:36:30.501Z,13.00
2022-10-15T14:39:34.851Z,15.10
2022-10-15T14:42:27.589Z,16.00
2022-10-15T14:44:56.330Z,18.30
2022-10-15T14:47:27.903Z,14.70
2022-10-15T14:50:02.795Z,14.80
2022-10-15T14:55:42.859Z,15.30
2022-10-15T14:58:24.301Z,15.20
2022-10-15T15:01:06.783Z,16.90
2022-10-15T15:03:43.970Z,15.00
2022-10-15T15:06:15.713Z,17.00
2022-10-15T15:08:46.691Z,15.00
2022-10-15T15:11:23.570Z,15.00
2022-10-15T15:14:01.860Z,16.30
2022-10-15T15:17:00.481Z,16.90
2022-10-15T15:31:19.189Z,16.00
2022-10-15T15:33:47.882Z,16.60
2022-10-15T15:36:22.531Z,18.20
2022-10-15T15:38:52.498Z,19.60
2022-10-15T15:41:24.189Z,19.20
2022-10-15T15:43:55.270Z,18.40
2022-10-15T15:46:23.980Z,17.60
2022-10-15T15:48:52.491Z,18.40
2022-10-15T15:51:32.188Z,18.10
2022-10-15T15:54:04.902Z,18.30
2022-10-15T15:56:35.269Z,20.20
2022-10-15T15:59:03.930Z,20.10
2022-10-15T16:01:32.550Z,19.80
2022-10-15T16:04:01.091Z,20.80
2022-10-15T16:06:29.659Z,20.20
2022-10-15T16:09:00.011Z,18.70
2022-10-15T16:11:28.674Z,18.80
2022-10-15T16:13:57.452Z,16.60
2022-10-15T16:16:27.152Z,20.50
2022-10-15T16:18:56.074Z,20.80
2022-10-15T16:21:29.054Z,19.40
2022-10-15T16:23:57.684Z,21.60
2022-10-15T16:26:26.971Z,21.10
2022-10-15T16:28:56.083Z,18.50
2022-10-15T16:31:30.401Z,20.10
2022-10-15T16:33:59.719Z,18.50
2022-10-15T16:36:28.450Z,18.60
2022-10-15T16:38:57.130Z,20.10
2022-10-15T16:41:25.710Z,19.70
2022-10-15T16:43:54.613Z,20.90
2022-10-15T16:46:23.314Z,20.90
2022-10-15T16:48:57.170Z,18.40
2022-10-15T16:51:27.130Z,18.50
2022-10-15T16:53:56.569Z,19.90
2022-10-15T16:56:29.467Z,20.60
2022-10-15T16:58:59.350Z,19.90
2022-10-15T17:01:30.564Z,22.30
2022-10-15T17:04:00.096Z,22.20
2022-10-15T17:06:31.528Z,21.60
2022-10-15T17:09:05.591Z,19.10
2022-10-15T17:11:44.415Z,19.20
2022-10-15T17:14:17.152Z,19.00
2022-10-15T17:16:52.184Z,19.60
2022-10-15T17:19:28.915Z,18.90
2022-10-15T17:22:00.624Z,19.10
2022-10-15T17:24:29.678Z,19.20
2022-10-15T17:26:58.517Z,19.60
2022-10-15T17:29:30.731Z,15.70
2022-10-15T17:32:03.344Z,17.00
2022-10-15T17:34:32.150Z,17.10
2022-10-15T17:37:01.027Z,17.30
2022-10-15T17:39:29.708Z,17.60
2022-10-15T17:41:58.707Z,17.90
2022-10-15T17:44:27.607Z,17.40
2022-10-15T17:46:56.190Z,17.00
2022-10-15T17:49:25.168Z,15.20
2022-10-15T17:51:53.866Z,15.70
2022-10-15T17:54:22.555Z,16.90
2022-10-15T17:56:51.240Z,16.70
2022-10-15T17:59:19.929Z,15.90
2022-10-15T18:02:03.740Z,15.50
2022-10-15T18:04:32.648Z,13.40
2022-10-15T18:07:01.349Z,15.10
2022-10-15T18:09:30.226Z,13.90
2022-10-15T18:12:01.870Z,15.40
2022-10-15T18:14:30.813Z,14.80
2022-10-15T18:16:59.684Z,15.60
2022-10-15T18:19:28.767Z,15.60
2022-10-15T18:21:58.096Z,17.30
2022-10-15T18:24:26.771Z,15.80
2022-10-15T18:26:55.851Z,15.70
2022-10-15T18:29:25.669Z,14.80
2022-10-15T18:31:57.739Z,16.30
2022-10-15T18:34:28.516Z,16.70
2022-10-15T18:36:57.967Z,17.70
2022-10-15T18:39:27.353Z,15.90
2022-10-15T18:41:56.469Z,17.90
2022-10-15T18:44:25.821Z,16.00
2022-10-15T18:46:54.760Z,17.40
2022-10-15T18:49:23.456Z,17.70
2022-10-15T18:51:53.358Z,17.20
2022-10-15T18:54:23.028Z,17.90
2022-10-15T18:56:53.177Z,17.80
2022-10-15T18:59:21.776Z,16.10
2022-10-15T19:01:51.163Z,17.20
2022-10-15T19:04:21.878Z,17.30
2022-10-15T19:06:54.153Z,16.70
2022-10-15T19:09:26.588Z,19.20
2022-10-15T19:11:57.315Z,17.20
2022-10-15T19:14:31.234Z,14.90
2022-10-15T19:16:59.990Z,17.00
2022-10-15T19:19:29.389Z,16.40
2022-10-15T19:21:58.488Z,16.60
2022-10-15T19:24:27.293Z,16.90
2022-10-15T19:26:56.234Z,16.40
2022-10-15T19:29:25.178Z,15.90
2022-10-15T19:31:55.025Z,15.50
2022-10-15T19:34:25.506Z,11.80
2022-10-15T19:36:53.996Z,13.70
2022-10-15T19:39:24.427Z,14.10
2022-10-15T19:41:54.000Z,14.50
2022-10-15T19:44:26.146Z,14.10
2022-10-15T19:46:56.816Z,13.80
2022-10-15T19:49:26.179Z,13.60
2022-10-15T19:51:56.334Z,9.80
2022-10-15T19:56:58.747Z,12.30
2022-10-15T19:59:27.648Z,12.60
2022-10-15T20:01:56.306Z,12.30
2022-10-15T20:04:25.116Z,12.80
2022-10-15T20:06:53.678Z,12.10
2022-10-15T20:09:22.389Z,10.90
2022-10-15T20:11:51.075Z,14.90
2022-10-15T20:14:19.850Z,12.90
2022-10-15T20:16:48.746Z,13.30
2022-10-15T20:19:17.534Z,14.50
2022-10-15T20:21:46.239Z,13.80
2022-10-15T20:24:14.980Z,12.20
2022-10-15T20:26:43.810Z,14.40
2022-10-15T20:29:17.708Z,13.50
2022-10-15T20:31:46.610Z,14.20
2022-10-15T20:34:15.485Z,13.50
2022-10-15T20:36:44.276Z,14.00
2022-10-15T20:39:13.058Z,15.10
2022-10-15T20:41:41.758Z,13.90
2022-10-15T20:44:13.354Z,14.20
2022-10-15T20:46:55.316Z,13.90
2022-10-15T20:49:35.973Z,14.20
2022-10-15T20:52:05.561Z,13.40
2022-10-15T20:54:35.298Z,13.30
2022-10-15T20:57:05.407Z,13.60
2022-10-15T20:59:34.305Z,13.50
2022-10-15T21:02:02.885Z,12.20
2022-10-15T21:04:31.673Z,12.70
2022-10-15T21:07:00.576Z,13.60
2022-10-15T21:09:29.369Z,14.10
2022-10-15T21:11:58.142Z,14.20
2022-10-15T21:14:27.017Z,13.60
2022-10-15T21:16:55.529Z,13.70
2022-10-15T21:19:24.423Z,13.30
2022-10-15T21:21:53.086Z,13.60
2022-10-15T21:24:21.688Z,12.30
2022-10-15T21:26:50.354Z,13.50
2022-10-15T21:29:18.835Z,13.20
2022-10-15T21:31:48.127Z,12.80
2022-10-15T21:34:16.619Z,12.40
2022-10-15T21:36:45.107Z,13.00
2022-10-15T21:39:13.604Z,12.30
2022-10-15T21:41:42.295Z,11.90
2022-10-15T21:44:10.971Z,12.00
2022-10-15T21:46:43.723Z,9.10
2022-10-15T21:49:14.317Z,10.50
2022-10-15T21:51:42.964Z,10.40
2022-10-15T21:54:11.748Z,12.00
2022-10-15T21:56:40.644Z,11.20
2022-10-15T21:59:14.580Z,9.50
2022-10-15T22:01:57.401Z,8.60
2022-10-15T22:04:26.999Z,10.10
2022-10-15T22:06:56.197Z,10.80
2022-10-15T22:09:26.327Z,10.40
2022-10-15T22:11:55.877Z,10.40
2022-10-15T22:14:27.967Z,10.90
2022-10-15T22:16:57.179Z,11.60
2022-10-15T22:19:29.347Z,11.20
2022-10-15T22:22:09.288Z,10.70
2022-10-15T22:24:42.048Z,9.50
2022-10-15T22:27:10.795Z,10.30
2022-10-15T22:29:45.108Z,8.80
2022-10-15T22:32:29.778Z,10.50
2022-10-15T22:35:03.447Z,9.70
2022-10-15T22:37:32.476Z,10.10
2022-10-15T22:40:00.865Z,9.40
2022-10-15T22:42:36.109Z,10.40
2022-10-15T22:45:26.911Z,10.10
2022-10-15T22:47:55.453Z,9.90
2022-10-15T22:50:23.959Z,10.60
2022-10-15T22:52:52.474Z,9.40
2022-10-15T22:55:24.856Z,9.30
2022-10-15T22:57:59.732Z,11.20
2022-10-15T23:00:37.019Z,7.80
2022-10-15T23:03:12.330Z,8.80
2022-10-15T23:05:40.836Z,10.40
2022-10-15T23:10:40.886Z,7.00
2022-10-15T23:13:12.460Z,9.20
2022-10-15T23:15:49.724Z,9.20
2022-10-15T23:18:18.128Z,10.20
2022-10-15T23:20:48.983Z,9.30
2022-10-15T23:23:21.175Z,9.50
2022-10-15T23:25:51.046Z,8.80
2022-10-15T23:28:19.530Z,9.40
2022-10-15T23:30:48.036Z,9.60
2022-10-15T23:33:16.571Z,10.60
2022-10-15T23:36:05.412Z,8.50
2022-10-15T23:38:33.826Z,8.50
2022-10-15T23:41:08.444Z,8.50
2022-10-15T23:43:39.775Z,8.80
2022-10-15T23:46:09.144Z,8.90
2022-10-15T23:48:42.336Z,9.80
2022-10-15T23:51:36.965Z,9.50
2022-10-15T23:54:18.446Z,8.50
2022-10-15T23:56:50.173Z,8.60
2022-10-15T23:59:26.879Z,8.40
